CEX5 weather

CLOSED Zama Airport
Zama, Alberta, Canada

Public forecast

Using degrees Celsius for public forecast. Weather courtesy of forecast.io.

Closest aviation weather report (METAR) to Zama Airport

Closest report is High Level Airport, 57.5 nm (106.4 km) ESE. Retrieved 2019/10/19 16:12 UTC (26 minutes ago):

CYOJ 191612Z 35008KT 3SM -SN OVC030 M01/M01 A2953 RMK SC8 SLP019

Closest aviation forecast (TAF) to Zama Airport

Closest forecast is High Level Airport, 57.5 nm (106.4 km) ESE. Retrieved 2019/10/19 13:42 UTC (3 hours ago):

TAF TAF CYOJ 191238Z 1913/2001 35010KT P6SM BKN050 OVC120 TEMPO 1913/1915 2SM -SN BKN025 OVC050 FM191500 35008KT P6SM OVC025 TEMPO 1915/2001 2SM -SN OVC008 RMK FCST BASED ON AUTO OBS NXT FCST BY 191900Z